Karditsa, Greece
Current Conditions -  °F | °C
As of 6:50 PM on Wednesday 28 Jan 2015 (Local Time) from LGLR Reporting Station
Overcast Overcast  
Wind Chill:   Ceiling: 2500
Heat Index:   Visibility: 5mi
Dew Point:   Wind: 9mph
Humidity: 81%   Direction: 70°ENE
Pressure: 29.83"   Gusts: NA
Location:  39.37°N, 21.92°E
Report Text: LGLR 281550Z 07008KT 8000 SCT008 BKN025 OVC070 08/05 Q1010 BLU
Loading
Personal Weather Stations






























Interactive Weather Map New forecast layout! Learn more

10-Day Weather Forecast

Advertisements
Track Severe Weather on mobile